createdAt,value
2023-01-08T00:06:22.552Z,98081.97
2023-01-08T00:26:25.088Z,98057.69
2023-01-08T00:46:27.784Z,98035.22
2023-01-08T01:06:30.522Z,98010.16
2023-01-08T01:26:33.134Z,98035.56
2023-01-08T01:46:35.933Z,98003.34
2023-01-08T02:06:38.698Z,97995.13
2023-01-08T02:26:41.440Z,97980.44
2023-01-08T02:46:44.145Z,97966.16
2023-01-08T03:06:46.809Z,97968.34
2023-01-08T03:26:49.486Z,97959.44
2023-01-08T03:46:52.235Z,97929.81
2023-01-08T04:06:55.199Z,97923.62
2023-01-08T04:26:57.911Z,97924.72
2023-01-08T04:47:00.656Z,97915.06
2023-01-08T05:07:03.318Z,97914.66
2023-01-08T05:27:06.031Z,97863.19
2023-01-08T05:47:08.837Z,97886.31
2023-01-08T06:07:12.423Z,97879.63
2023-01-08T06:27:15.099Z,97854.53
2023-01-08T06:47:17.705Z,97858.41
2023-01-08T07:07:20.424Z,97850.63
2023-01-08T07:27:23.939Z,97852.72
2023-01-08T07:47:27.560Z,97849.69
2023-01-08T08:07:30.325Z,97823.38
2023-01-08T08:27:33.532Z,97788.94
2023-01-08T08:47:36.117Z,97779.44
2023-01-08T09:07:38.752Z,97764.31
2023-01-08T09:27:41.458Z,97766.91
2023-01-08T09:47:44.163Z,97732.16
2023-01-08T10:07:46.850Z,97699.19
2023-01-08T10:27:49.620Z,97657.25
2023-01-08T10:47:52.153Z,97624.44
2023-01-08T11:07:54.859Z,97599.84
2023-01-08T11:27:57.755Z,97591.78
2023-01-08T11:48:01.675Z,97565.12
2023-01-08T12:08:04.450Z,97545.38
2023-01-08T12:28:07.048Z,97534.78
2023-01-08T12:48:09.658Z,97524.53
2023-01-08T13:08:12.302Z,97511.00
2023-01-08T13:28:15.010Z,97518.47
2023-01-08T13:48:17.724Z,97495.75
2023-01-08T14:08:20.519Z,97512.25
2023-01-08T14:28:23.269Z,97528.03
2023-01-08T14:48:25.942Z,97516.41
2023-01-08T15:08:28.708Z,97511.88
2023-01-08T15:28:32.354Z,97490.31
2023-01-08T15:48:35.982Z,97466.28
2023-01-08T16:08:38.614Z,97455.59
2023-01-08T16:28:41.296Z,97466.44
2023-01-08T16:48:44.111Z,97451.66
2023-01-08T17:08:46.776Z,97432.81
2023-01-08T17:28:49.562Z,97433.97
2023-01-08T17:48:52.160Z,97424.28
2023-01-08T18:08:54.866Z,97430.69
2023-01-08T18:28:57.581Z,97425.03
2023-01-08T18:49:00.352Z,97424.37
2023-01-08T19:09:03.044Z,97401.97
2023-01-08T19:29:05.775Z,97363.91
2023-01-08T19:49:08.367Z,97345.75
2023-01-08T20:09:11.384Z,97318.37
2023-01-08T20:29:14.174Z,97300.97
2023-01-08T20:49:18.476Z,97281.06
2023-01-08T21:09:21.076Z,97250.41
2023-01-08T21:29:24.698Z,97228.00
2023-01-08T21:49:27.208Z,97206.09
2023-01-08T22:09:29.672Z,97188.81
2023-01-08T22:29:32.134Z,97161.81
2023-01-08T22:49:34.866Z,97142.91
2023-01-08T23:09:37.494Z,97144.00
2023-01-08T23:29:40.558Z,97134.25
2023-01-08T23:49:43.173Z,97094.94
